sensor_id;sensor_type;location;lat;lon;timestamp;P1;durP1;ratioP1;P2;durP2;ratioP2
61505;SDS011;47366;51.916;4.574;2024-02-26T00:00:04;0.80;;;0.57;;
61505;SDS011;47366;51.916;4.574;2024-02-26T00:02:33;0.30;;;0.30;;
61505;SDS011;47366;51.916;4.574;2024-02-26T00:05:03;1.20;;;0.73;;
61505;SDS011;47366;51.916;4.574;2024-02-26T00:07:30;0.60;;;0.47;;
61505;SDS011;47366;51.916;4.574;2024-02-26T00:09:55;0.73;;;0.52;;
61505;SDS011;47366;51.916;4.574;2024-02-26T00:12:20;0.63;;;0.45;;
61505;SDS011;47366;51.916;4.574;2024-02-26T00:14:46;0.85;;;0.63;;
61505;SDS011;47366;51.916;4.574;2024-02-26T00:17:12;1.25;;;0.70;;
61505;SDS011;47366;51.916;4.574;2024-02-26T00:19:38;1.63;;;0.88;;
61505;SDS011;47366;51.916;4.574;2024-02-26T00:22:03;1.60;;;0.70;;
61505;SDS011;47366;51.916;4.574;2024-02-26T00:24:29;0.65;;;0.50;;
61505;SDS011;47366;51.916;4.574;2024-02-26T00:26:54;0.45;;;0.30;;
61505;SDS011;47366;51.916;4.574;2024-02-26T00:29:20;1.48;;;0.82;;
61505;SDS011;47366;51.916;4.574;2024-02-26T00:31:45;0.57;;;0.50;;
61505;SDS011;47366;51.916;4.574;2024-02-26T00:34:11;0.77;;;0.60;;
61505;SDS011;47366;51.916;4.574;2024-02-26T00:36:36;0.98;;;0.82;;
61505;SDS011;47366;51.916;4.574;2024-02-26T00:39:01;1.67;;;0.98;;
61505;SDS011;47366;51.916;4.574;2024-02-26T00:41:28;1.17;;;0.60;;
61505;SDS011;47366;51.916;4.574;2024-02-26T00:43:54;0.77;;;0.25;;
61505;SDS011;47366;51.916;4.574;2024-02-26T00:46:19;0.95;;;0.50;;
61505;SDS011;47366;51.916;4.574;2024-02-26T00:48:44;1.15;;;0.88;;
61505;SDS011;47366;51.916;4.574;2024-02-26T00:51:10;0.50;;;0.50;;
61505;SDS011;47366;51.916;4.574;2024-02-26T00:53:35;6.28;;;0.63;;
61505;SDS011;47366;51.916;4.574;2024-02-26T00:56:00;1.60;;;0.80;;
61505;SDS011;47366;51.916;4.574;2024-02-26T00:58:26;1.13;;;0.73;;
61505;SDS011;47366;51.916;4.574;2024-02-26T01:00:52;0.40;;;0.38;;
61505;SDS011;47366;51.916;4.574;2024-02-26T01:03:17;0.80;;;0.60;;
61505;SDS011;47366;51.916;4.574;2024-02-26T01:05:46;0.73;;;0.45;;
61505;SDS011;47366;51.916;4.574;2024-02-26T01:08:11;1.02;;;0.80;;
61505;SDS011;47366;51.916;4.574;2024-02-26T01:10:36;0.95;;;0.57;;
61505;SDS011;47366;51.916;4.574;2024-02-26T01:13:02;1.13;;;0.82;;
61505;SDS011;47366;51.916;4.574;2024-02-26T01:15:27;0.75;;;0.70;;
61505;SDS011;47366;51.916;4.574;2024-02-26T01:17:53;0.25;;;0.25;;
61505;SDS011;47366;51.916;4.574;2024-02-26T01:20:18;2.28;;;1.55;;
61505;SDS011;47366;51.916;4.574;2024-02-26T01:22:44;0.60;;;0.55;;
61505;SDS011;47366;51.916;4.574;2024-02-26T01:25:09;1.02;;;0.75;;
61505;SDS011;47366;51.916;4.574;2024-02-26T01:27:35;2.10;;;0.55;;
61505;SDS011;47366;51.916;4.574;2024-02-26T01:30:04;0.35;;;0.30;;
61505;SDS011;47366;51.916;4.574;2024-02-26T01:32:31;1.02;;;0.93;;
61505;SDS011;47366;51.916;4.574;2024-02-26T01:34:56;0.63;;;0.50;;
61505;SDS011;47366;51.916;4.574;2024-02-26T01:37:22;0.52;;;0.52;;
61505;SDS011;47366;51.916;4.574;2024-02-26T01:39:47;0.57;;;0.57;;
61505;SDS011;47366;51.916;4.574;2024-02-26T01:42:12;0.40;;;0.40;;
61505;SDS011;47366;51.916;4.574;2024-02-26T01:44:38;1.42;;;0.45;;
61505;SDS011;47366;51.916;4.574;2024-02-26T01:47:03;0.77;;;0.77;;
61505;SDS011;47366;51.916;4.574;2024-02-26T01:49:30;0.50;;;0.50;;
61505;SDS011;47366;51.916;4.574;2024-02-26T01:51:56;0.75;;;0.50;;
61505;SDS011;47366;51.916;4.574;2024-02-26T01:54:23;0.98;;;0.75;;
61505;SDS011;47366;51.916;4.574;2024-02-26T01:56:48;2.30;;;1.17;;
61505;SDS011;47366;51.916;4.574;2024-02-26T01:59:15;0.82;;;0.80;;
61505;SDS011;47366;51.916;4.574;2024-02-26T02:01:42;0.40;;;0.40;;
61505;SDS011;47366;51.916;4.574;2024-02-26T02:04:12;1.30;;;1.08;;
61505;SDS011;47366;51.916;4.574;2024-02-26T02:06:38;3.75;;;0.68;;
61505;SDS011;47366;51.916;4.574;2024-02-26T02:09:03;1.42;;;1.15;;
61505;SDS011;47366;51.916;4.574;2024-02-26T02:11:32;1.13;;;0.93;;
61505;SDS011;47366;51.916;4.574;2024-02-26T02:13:58;0.90;;;0.77;;
61505;SDS011;47366;51.916;4.574;2024-02-26T02:16:24;0.68;;;0.68;;
61505;SDS011;47366;51.916;4.574;2024-02-26T02:18:49;0.85;;;0.43;;
61505;SDS011;47366;51.916;4.574;2024-02-26T02:21:15;0.88;;;0.65;;
61505;SDS011;47366;51.916;4.574;2024-02-26T02:23:45;0.60;;;0.60;;
61505;SDS011;47366;51.916;4.574;2024-02-26T02:26:15;0.65;;;0.47;;
61505;SDS011;47366;51.916;4.574;2024-02-26T02:28:41;0.70;;;0.70;;
61505;SDS011;47366;51.916;4.574;2024-02-26T02:31:06;0.55;;;0.50;;
61505;SDS011;47366;51.916;4.574;2024-02-26T02:33:32;0.98;;;0.65;;
61505;SDS011;47366;51.916;4.574;2024-02-26T02:36:02;0.70;;;0.70;;
61505;SDS011;47366;51.916;4.574;2024-02-26T02:38:27;1.02;;;0.40;;
61505;SDS011;47366;51.916;4.574;2024-02-26T02:40:54;0.98;;;0.80;;
61505;SDS011;47366;51.916;4.574;2024-02-26T02:43:20;1.27;;;0.95;;
61505;SDS011;47366;51.916;4.574;2024-02-26T02:45:45;0.35;;;0.30;;
61505;SDS011;47366;51.916;4.574;2024-02-26T02:48:11;0.65;;;0.30;;
61505;SDS011;47366;51.916;4.574;2024-02-26T02:50:36;0.50;;;0.50;;
61505;SDS011;47366;51.916;4.574;2024-02-26T02:53:02;2.05;;;0.98;;
61505;SDS011;47366;51.916;4.574;2024-02-26T02:55:27;1.70;;;0.80;;
61505;SDS011;47366;51.916;4.574;2024-02-26T02:57:53;1.05;;;0.95;;
61505;SDS011;47366;51.916;4.574;2024-02-26T03:00:18;0.40;;;0.40;;
61505;SDS011;47366;51.916;4.574;2024-02-26T03:02:43;0.52;;;0.52;;
61505;SDS011;47366;51.916;4.574;2024-02-26T03:05:10;0.65;;;0.65;;
61505;SDS011;47366;51.916;4.574;2024-02-26T03:07:35;1.33;;;0.95;;
61505;SDS011;47366;51.916;4.574;2024-02-26T03:10:00;1.17;;;0.65;;
61505;SDS011;47366;51.916;4.574;2024-02-26T03:12:26;0.88;;;0.88;;
61505;SDS011;47366;51.916;4.574;2024-02-26T03:14:52;0.82;;;0.68;;
61505;SDS011;47366;51.916;4.574;2024-02-26T03:17:19;0.50;;;0.47;;
61505;SDS011;47366;51.916;4.574;2024-02-26T03:19:45;1.55;;;0.95;;
61505;SDS011;47366;51.916;4.574;2024-02-26T03:22:12;6.25;;;1.15;;
61505;SDS011;47366;51.916;4.574;2024-02-26T03:24:37;0.95;;;0.47;;
61505;SDS011;47366;51.916;4.574;2024-02-26T03:27:03;1.13;;;0.55;;
61505;SDS011;47366;51.916;4.574;2024-02-26T03:29:30;0.98;;;0.90;;
61505;SDS011;47366;51.916;4.574;2024-02-26T03:31:55;1.95;;;1.33;;
61505;SDS011;47366;51.916;4.574;2024-02-26T03:34:21;0.73;;;0.68;;
61505;SDS011;47366;51.916;4.574;2024-02-26T03:36:46;1.13;;;0.80;;
61505;SDS011;47366;51.916;4.574;2024-02-26T03:39:12;0.63;;;0.63;;
61505;SDS011;47366;51.916;4.574;2024-02-26T03:41:37;1.02;;;0.75;;
61505;SDS011;47366;51.916;4.574;2024-02-26T03:44:03;1.45;;;1.00;;
61505;SDS011;47366;51.916;4.574;2024-02-26T03:46:28;1.30;;;1.00;;
61505;SDS011;47366;51.916;4.574;2024-02-26T03:48:53;1.85;;;1.58;;
61505;SDS011;47366;51.916;4.574;2024-02-26T03:51:19;2.78;;;1.23;;
61505;SDS011;47366;51.916;4.574;2024-02-26T03:53:44;1.25;;;0.82;;
61505;SDS011;47366;51.916;4.574;2024-02-26T03:56:13;1.17;;;0.93;;
61505;SDS011;47366;51.916;4.574;2024-02-26T03:58:38;1.08;;;0.75;;
61505;SDS011;47366;51.916;4.574;2024-02-26T04:01:06;0.77;;;0.70;;
61505;SDS011;47366;51.916;4.574;2024-02-26T04:03:32;1.17;;;1.02;;
61505;SDS011;47366;51.916;4.574;2024-02-26T04:05:58;1.65;;;1.30;;
61505;SDS011;47366;51.916;4.574;2024-02-26T04:08:23;1.77;;;1.38;;
61505;SDS011;47366;51.916;4.574;2024-02-26T04:10:48;3.38;;;1.75;;
61505;SDS011;47366;51.916;4.574;2024-02-26T04:13:14;1.08;;;0.98;;
61505;SDS011;47366;51.916;4.574;2024-02-26T04:15:39;2.00;;;1.52;;
61505;SDS011;47366;51.916;4.574;2024-02-26T04:18:05;1.00;;;0.77;;
61505;SDS011;47366;51.916;4.574;2024-02-26T04:20:30;1.70;;;1.52;;
61505;SDS011;47366;51.916;4.574;2024-02-26T04:22:55;2.22;;;1.75;;
61505;SDS011;47366;51.916;4.574;2024-02-26T04:25:21;0.93;;;0.80;;
61505;SDS011;47366;51.916;4.574;2024-02-26T04:27:46;1.08;;;0.95;;
61505;SDS011;47366;51.916;4.574;2024-02-26T04:30:11;2.45;;;1.58;;
61505;SDS011;47366;51.916;4.574;2024-02-26T04:32:37;0.85;;;0.63;;
61505;SDS011;47366;51.916;4.574;2024-02-26T04:35:02;3.17;;;0.82;;
61505;SDS011;47366;51.916;4.574;2024-02-26T04:37:28;2.03;;;1.60;;
61505;SDS011;47366;51.916;4.574;2024-02-26T04:39:59;1.65;;;1.20;;
61505;SDS011;47366;51.916;4.574;2024-02-26T04:42:25;3.28;;;0.75;;
61505;SDS011;47366;51.916;4.574;2024-02-26T04:44:51;1.05;;;0.98;;
61505;SDS011;47366;51.916;4.574;2024-02-26T04:47:16;2.22;;;1.67;;
61505;SDS011;47366;51.916;4.574;2024-02-26T04:49:42;2.10;;;1.42;;
61505;SDS011;47366;51.916;4.574;2024-02-26T04:52:07;2.08;;;1.45;;
61505;SDS011;47366;51.916;4.574;2024-02-26T04:54:32;3.50;;;1.88;;
61505;SDS011;47366;51.916;4.574;2024-02-26T04:56:58;2.70;;;1.58;;
61505;SDS011;47366;51.916;4.574;2024-02-26T04:59:23;4.47;;;1.80;;
61505;SDS011;47366;51.916;4.574;2024-02-26T05:01:49;1.63;;;1.02;;
61505;SDS011;47366;51.916;4.574;2024-02-26T05:04:16;3.08;;;2.08;;
61505;SDS011;47366;51.916;4.574;2024-02-26T05:06:41;0.70;;;0.70;;
61505;SDS011;47366;51.916;4.574;2024-02-26T05:09:06;1.67;;;1.25;;
61505;SDS011;47366;51.916;4.574;2024-02-26T05:11:32;1.38;;;1.25;;
61505;SDS011;47366;51.916;4.574;2024-02-26T05:13:57;2.00;;;1.00;;
61505;SDS011;47366;51.916;4.574;2024-02-26T05:16:23;2.65;;;1.73;;
61505;SDS011;47366;51.916;4.574;2024-02-26T05:18:49;1.55;;;1.27;;
61505;SDS011;47366;51.916;4.574;2024-02-26T05:21:15;1.60;;;1.27;;
61505;SDS011;47366;51.916;4.574;2024-02-26T05:23:40;2.78;;;1.75;;
61505;SDS011;47366;51.916;4.574;2024-02-26T05:26:08;2.03;;;1.83;;
61505;SDS011;47366;51.916;4.574;2024-02-26T05:28:34;1.98;;;1.50;;
61505;SDS011;47366;51.916;4.574;2024-02-26T05:30:59;1.77;;;1.55;;
61505;SDS011;47366;51.916;4.574;2024-02-26T05:33:25;11.23;;;1.48;;
61505;SDS011;47366;51.916;4.574;2024-02-26T05:35:50;4.32;;;2.00;;
61505;SDS011;47366;51.916;4.574;2024-02-26T05:38:15;1.75;;;1.23;;
61505;SDS011;47366;51.916;4.574;2024-02-26T05:40:41;2.38;;;1.13;;
61505;SDS011;47366;51.916;4.574;2024-02-26T05:43:06;1.98;;;1.40;;
61505;SDS011;47366;51.916;4.574;2024-02-26T05:45:31;2.40;;;1.55;;
61505;SDS011;47366;51.916;4.574;2024-02-26T05:47:58;1.27;;;1.15;;
61505;SDS011;47366;51.916;4.574;2024-02-26T05:50:23;3.72;;;1.88;;
61505;SDS011;47366;51.916;4.574;2024-02-26T05:52:48;3.03;;;1.15;;
61505;SDS011;47366;51.916;4.574;2024-02-26T05:55:14;3.97;;;1.42;;
61505;SDS011;47366;51.916;4.574;2024-02-26T05:57:39;1.65;;;0.82;;
61505;SDS011;47366;51.916;4.574;2024-02-26T06:00:04;2.97;;;1.67;;
61505;SDS011;47366;51.916;4.574;2024-02-26T06:02:30;2.50;;;1.33;;
61505;SDS011;47366;51.916;4.574;2024-02-26T06:04:56;2.15;;;1.45;;
61505;SDS011;47366;51.916;4.574;2024-02-26T06:07:22;2.30;;;1.73;;
61505;SDS011;47366;51.916;4.574;2024-02-26T06:09:48;2.95;;;2.03;;
61505;SDS011;47366;51.916;4.574;2024-02-26T06:12:13;2.70;;;2.08;;
61505;SDS011;47366;51.916;4.574;2024-02-26T06:14:39;2.42;;;1.80;;
61505;SDS011;47366;51.916;4.574;2024-02-26T06:17:04;2.38;;;1.83;;
61505;SDS011;47366;51.916;4.574;2024-02-26T06:19:29;1.10;;;1.00;;
61505;SDS011;47366;51.916;4.574;2024-02-26T06:21:55;3.47;;;1.80;;
61505;SDS011;47366;51.916;4.574;2024-02-26T06:24:20;1.73;;;1.30;;
61505;SDS011;47366;51.916;4.574;2024-02-26T06:26:47;1.05;;;0.77;;
61505;SDS011;47366;51.916;4.574;2024-02-26T06:29:13;2.03;;;1.23;;
61505;SDS011;47366;51.916;4.574;2024-02-26T06:31:38;1.40;;;1.15;;
61505;SDS011;47366;51.916;4.574;2024-02-26T06:34:03;2.33;;;1.80;;
61505;SDS011;47366;51.916;4.574;2024-02-26T06:36:29;3.13;;;2.25;;
61505;SDS011;47366;51.916;4.574;2024-02-26T06:38:56;3.63;;;2.10;;
61505;SDS011;47366;51.916;4.574;2024-02-26T06:41:21;4.10;;;2.53;;
61505;SDS011;47366;51.916;4.574;2024-02-26T06:43:52;2.40;;;1.88;;
61505;SDS011;47366;51.916;4.574;2024-02-26T06:46:18;7.13;;;4.00;;
61505;SDS011;47366;51.916;4.574;2024-02-26T06:48:43;5.45;;;2.78;;
61505;SDS011;47366;51.916;4.574;2024-02-26T06:51:08;7.43;;;2.92;;
61505;SDS011;47366;51.916;4.574;2024-02-26T06:53:34;4.72;;;3.30;;
61505;SDS011;47366;51.916;4.574;2024-02-26T06:56:00;5.25;;;2.10;;
61505;SDS011;47366;51.916;4.574;2024-02-26T06:58:25;1.55;;;1.17;;
61505;SDS011;47366;51.916;4.574;2024-02-26T07:00:50;3.33;;;2.10;;
61505;SDS011;47366;51.916;4.574;2024-02-26T07:03:16;3.42;;;1.70;;
61505;SDS011;47366;51.916;4.574;2024-02-26T07:05:41;4.50;;;1.90;;
61505;SDS011;47366;51.916;4.574;2024-02-26T07:08:07;4.88;;;2.22;;
61505;SDS011;47366;51.916;4.574;2024-02-26T07:10:32;1.30;;;1.15;;
61505;SDS011;47366;51.916;4.574;2024-02-26T07:12:57;4.43;;;2.22;;
61505;SDS011;47366;51.916;4.574;2024-02-26T07:15:23;4.45;;;2.13;;
61505;SDS011;47366;51.916;4.574;2024-02-26T07:17:49;3.30;;;1.70;;
61505;SDS011;47366;51.916;4.574;2024-02-26T07:20:14;2.75;;;1.90;;
61505;SDS011;47366;51.916;4.574;2024-02-26T07:22:40;2.35;;;1.80;;
61505;SDS011;47366;51.916;4.574;2024-02-26T07:25:07;4.18;;;2.05;;
61505;SDS011;47366;51.916;4.574;2024-02-26T07:27:33;2.58;;;2.17;;
61505;SDS011;47366;51.916;4.574;2024-02-26T07:29:59;11.77;;;2.58;;
61505;SDS011;47366;51.916;4.574;2024-02-26T07:32:24;4.93;;;3.22;;
61505;SDS011;47366;51.916;4.574;2024-02-26T07:34:50;4.93;;;2.42;;
61505;SDS011;47366;51.916;4.574;2024-02-26T07:37:15;4.40;;;2.78;;
61505;SDS011;47366;51.916;4.574;2024-02-26T07:39:41;11.38;;;4.35;;
61505;SDS011;47366;51.916;4.574;2024-02-26T07:42:06;6.47;;;2.97;;
61505;SDS011;47366;51.916;4.574;2024-02-26T07:44:32;2.10;;;1.90;;
61505;SDS011;47366;51.916;4.574;2024-02-26T07:46:58;3.72;;;2.60;;
61505;SDS011;47366;51.916;4.574;2024-02-26T07:49:23;5.93;;;2.85;;
61505;SDS011;47366;51.916;4.574;2024-02-26T07:51:48;5.18;;;3.45;;
61505;SDS011;47366;51.916;4.574;2024-02-26T07:54:14;5.95;;;2.35;;
61505;SDS011;47366;51.916;4.574;2024-02-26T07:56:41;5.72;;;2.30;;
61505;SDS011;47366;51.916;4.574;2024-02-26T07:59:06;2.45;;;1.77;;
61505;SDS011;47366;51.916;4.574;2024-02-26T08:01:34;8.18;;;3.10;;
61505;SDS011;47366;51.916;4.574;2024-02-26T08:04:00;3.33;;;2.63;;
61505;SDS011;47366;51.916;4.574;2024-02-26T08:06:25;6.10;;;3.70;;
61505;SDS011;47366;51.916;4.574;2024-02-26T08:08:50;6.07;;;4.10;;
61505;SDS011;47366;51.916;4.574;2024-02-26T08:11:16;5.55;;;3.55;;
61505;SDS011;47366;51.916;4.574;2024-02-26T08:13:41;5.28;;;3.60;;
61505;SDS011;47366;51.916;4.574;2024-02-26T08:16:07;4.00;;;2.55;;
61505;SDS011;47366;51.916;4.574;2024-02-26T08:18:32;6.00;;;3.72;;
61505;SDS011;47366;51.916;4.574;2024-02-26T08:20:58;6.20;;;3.85;;
61505;SDS011;47366;51.916;4.574;2024-02-26T08:23:23;4.75;;;3.25;;
61505;SDS011;47366;51.916;4.574;2024-02-26T08:25:50;10.85;;;6.20;;
61505;SDS011;47366;51.916;4.574;2024-02-26T08:28:15;5.32;;;2.60;;
61505;SDS011;47366;51.916;4.574;2024-02-26T08:30:42;4.05;;;2.78;;
61505;SDS011;47366;51.916;4.574;2024-02-26T08:33:08;1.95;;;1.80;;
61505;SDS011;47366;51.916;4.574;2024-02-26T08:35:33;2.92;;;1.73;;
61505;SDS011;47366;51.916;4.574;2024-02-26T08:37:59;4.70;;;2.03;;
61505;SDS011;47366;51.916;4.574;2024-02-26T08:40:24;3.58;;;1.73;;
61505;SDS011;47366;51.916;4.574;2024-02-26T08:42:49;2.47;;;2.17;;
61505;SDS011;47366;51.916;4.574;2024-02-26T08:45:15;3.42;;;2.05;;
61505;SDS011;47366;51.916;4.574;2024-02-26T08:47:40;3.00;;;2.45;;
61505;SDS011;47366;51.916;4.574;2024-02-26T08:50:06;3.72;;;2.92;;
61505;SDS011;47366;51.916;4.574;2024-02-26T08:52:32;3.13;;;2.33;;
61505;SDS011;47366;51.916;4.574;2024-02-26T08:54:58;2.47;;;1.48;;
61505;SDS011;47366;51.916;4.574;2024-02-26T08:57:24;3.47;;;2.28;;
61505;SDS011;47366;51.916;4.574;2024-02-26T08:59:52;2.60;;;1.88;;
61505;SDS011;47366;51.916;4.574;2024-02-26T09:02:17;2.47;;;1.63;;
61505;SDS011;47366;51.916;4.574;2024-02-26T09:04:44;3.22;;;2.30;;
61505;SDS011;47366;51.916;4.574;2024-02-26T09:07:10;4.65;;;2.35;;
61505;SDS011;47366;51.916;4.574;2024-02-26T09:09:35;1.55;;;1.45;;
61505;SDS011;47366;51.916;4.574;2024-02-26T09:12:01;3.03;;;2.20;;
61505;SDS011;47366;51.916;4.574;2024-02-26T09:14:27;2.95;;;1.65;;
61505;SDS011;47366;51.916;4.574;2024-02-26T09:16:52;2.40;;;1.83;;
61505;SDS011;47366;51.916;4.574;2024-02-26T09:19:18;2.10;;;1.73;;
61505;SDS011;47366;51.916;4.574;2024-02-26T09:21:44;3.80;;;1.65;;
61505;SDS011;47366;51.916;4.574;2024-02-26T09:24:10;2.08;;;1.77;;
61505;SDS011;47366;51.916;4.574;2024-02-26T09:26:37;1.90;;;1.40;;
61505;SDS011;47366;51.916;4.574;2024-02-26T09:29:02;3.35;;;1.38;;
61505;SDS011;47366;51.916;4.574;2024-02-26T09:31:29;2.10;;;1.25;;
61505;SDS011;47366;51.916;4.574;2024-02-26T09:33:54;0.60;;;0.60;;
61505;SDS011;47366;51.916;4.574;2024-02-26T09:36:20;1.52;;;0.98;;
61505;SDS011;47366;51.916;4.574;2024-02-26T09:38:46;2.83;;;1.67;;
61505;SDS011;47366;51.916;4.574;2024-02-26T09:41:14;0.88;;;0.60;;
61505;SDS011;47366;51.916;4.574;2024-02-26T09:43:41;3.25;;;1.88;;
61505;SDS011;47366;51.916;4.574;2024-02-26T09:46:10;1.55;;;1.05;;
61505;SDS011;47366;51.916;4.574;2024-02-26T09:48:35;1.52;;;1.42;;
61505;SDS011;47366;51.916;4.574;2024-02-26T09:51:02;1.45;;;1.35;;
61505;SDS011;47366;51.916;4.574;2024-02-26T09:53:29;1.77;;;1.10;;
61505;SDS011;47366;51.916;4.574;2024-02-26T09:55:56;0.88;;;0.65;;
61505;SDS011;47366;51.916;4.574;2024-02-26T09:58:25;1.50;;;1.13;;
61505;SDS011;47366;51.916;4.574;2024-02-26T10:00:56;0.75;;;0.73;;
61505;SDS011;47366;51.916;4.574;2024-02-26T10:03:28;2.88;;;1.10;;
61505;SDS011;47366;51.916;4.574;2024-02-26T10:05:59;1.38;;;1.00;;
61505;SDS011;47366;51.916;4.574;2024-02-26T10:08:25;1.15;;;1.05;;
61505;SDS011;47366;51.916;4.574;2024-02-26T10:10:51;3.28;;;1.67;;
61505;SDS011;47366;51.916;4.574;2024-02-26T10:13:17;3.67;;;1.55;;
61505;SDS011;47366;51.916;4.574;2024-02-26T10:15:44;2.05;;;1.42;;
61505;SDS011;47366;51.916;4.574;2024-02-26T10:18:10;1.42;;;0.73;;
61505;SDS011;47366;51.916;4.574;2024-02-26T10:20:35;2.45;;;1.58;;
61505;SDS011;47366;51.916;4.574;2024-02-26T10:23:04;1.23;;;1.10;;
61505;SDS011;47366;51.916;4.574;2024-02-26T10:25:30;0.68;;;0.68;;
61505;SDS011;47366;51.916;4.574;2024-02-26T10:27:59;1.00;;;0.80;;
61505;SDS011;47366;51.916;4.574;2024-02-26T10:30:28;1.05;;;0.85;;
61505;SDS011;47366;51.916;4.574;2024-02-26T10:32:54;3.05;;;1.17;;
61505;SDS011;47366;51.916;4.574;2024-02-26T10:35:23;2.28;;;1.27;;
61505;SDS011;47366;51.916;4.574;2024-02-26T10:37:49;0.73;;;0.55;;
61505;SDS011;47366;51.916;4.574;2024-02-26T10:40:16;0.95;;;0.80;;
61505;SDS011;47366;51.916;4.574;2024-02-26T10:42:42;1.70;;;0.98;;
61505;SDS011;47366;51.916;4.574;2024-02-26T10:45:10;0.88;;;0.65;;
61505;SDS011;47366;51.916;4.574;2024-02-26T10:47:38;0.95;;;0.52;;
61505;SDS011;47366;51.916;4.574;2024-02-26T10:50:06;2.05;;;0.95;;
61505;SDS011;47366;51.916;4.574;2024-02-26T10:52:34;0.80;;;0.77;;
61505;SDS011;47366;51.916;4.574;2024-02-26T10:55:01;1.33;;;0.98;;
61505;SDS011;47366;51.916;4.574;2024-02-26T10:57:38;2.35;;;1.17;;
61505;SDS011;47366;51.916;4.574;2024-02-26T11:00:07;1.98;;;1.30;;
61505;SDS011;47366;51.916;4.574;2024-02-26T11:02:38;0.70;;;0.70;;
61505;SDS011;47366;51.916;4.574;2024-02-26T11:05:05;3.00;;;1.20;;
61505;SDS011;47366;51.916;4.574;2024-02-26T11:07:32;1.15;;;0.95;;
61505;SDS011;47366;51.916;4.574;2024-02-26T11:10:02;0.30;;;0.30;;
61505;SDS011;47366;51.916;4.574;2024-02-26T11:12:29;0.77;;;0.68;;
61505;SDS011;47366;51.916;4.574;2024-02-26T11:14:56;2.17;;;1.35;;
61505;SDS011;47366;51.916;4.574;2024-02-26T11:17:23;1.73;;;1.63;;
61505;SDS011;47366;51.916;4.574;2024-02-26T11:19:51;1.48;;;1.13;;
61505;SDS011;47366;51.916;4.574;2024-02-26T11:22:20;1.58;;;0.90;;
61505;SDS011;47366;51.916;4.574;2024-02-26T11:24:47;6.40;;;1.23;;
61505;SDS011;47366;51.916;4.574;2024-02-26T11:27:13;0.55;;;0.47;;
61505;SDS011;47366;51.916;4.574;2024-02-26T11:29:44;1.33;;;1.13;;
61505;SDS011;47366;51.916;4.574;2024-02-26T11:32:17;2.25;;;1.08;;
61505;SDS011;47366;51.916;4.574;2024-02-26T11:34:43;2.03;;;1.10;;
61505;SDS011;47366;51.916;4.574;2024-02-26T11:37:09;2.10;;;1.23;;
61505;SDS011;47366;51.916;4.574;2024-02-26T11:39:36;1.90;;;1.02;;
61505;SDS011;47366;51.916;4.574;2024-02-26T11:42:10;3.35;;;1.17;;
61505;SDS011;47366;51.916;4.574;2024-02-26T11:44:39;0.93;;;0.57;;
61505;SDS011;47366;51.916;4.574;2024-02-26T11:47:10;1.55;;;0.68;;
61505;SDS011;47366;51.916;4.574;2024-02-26T11:49:39;0.90;;;0.57;;
61505;SDS011;47366;51.916;4.574;2024-02-26T11:52:06;0.73;;;0.73;;
61505;SDS011;47366;51.916;4.574;2024-02-26T11:57:30;0.93;;;0.85;;
61505;SDS011;47366;51.916;4.574;2024-02-26T12:02:43;0.77;;;0.75;;
61505;SDS011;47366;51.916;4.574;2024-02-26T12:05:10;2.13;;;0.88;;
61505;SDS011;47366;51.916;4.574;2024-02-26T12:07:42;2.35;;;0.73;;
61505;SDS011;47366;51.916;4.574;2024-02-26T12:10:13;1.75;;;0.98;;
61505;SDS011;47366;51.916;4.574;2024-02-26T12:12:41;2.47;;;1.60;;
61505;SDS011;47366;51.916;4.574;2024-02-26T12:15:07;2.05;;;1.58;;
61505;SDS011;47366;51.916;4.574;2024-02-26T12:17:33;1.38;;;1.08;;
61505;SDS011;47366;51.916;4.574;2024-02-26T12:20:09;1.15;;;0.75;;
61505;SDS011;47366;51.916;4.574;2024-02-26T12:22:35;0.57;;;0.45;;
61505;SDS011;47366;51.916;4.574;2024-02-26T12:25:04;0.98;;;0.63;;
61505;SDS011;47366;51.916;4.574;2024-02-26T12:27:30;1.38;;;1.02;;
61505;SDS011;47366;51.916;4.574;2024-02-26T12:29:56;0.40;;;0.38;;
61505;SDS011;47366;51.916;4.574;2024-02-26T12:32:21;0.70;;;0.63;;
61505;SDS011;47366;51.916;4.574;2024-02-26T12:34:48;2.05;;;1.02;;
61505;SDS011;47366;51.916;4.574;2024-02-26T12:37:14;1.00;;;0.65;;
61505;SDS011;47366;51.916;4.574;2024-02-26T12:39:40;1.75;;;0.70;;
61505;SDS011;47366;51.916;4.574;2024-02-26T12:42:06;1.58;;;0.95;;
61505;SDS011;47366;51.916;4.574;2024-02-26T12:44:32;2.00;;;0.93;;
61505;SDS011;47366;51.916;4.574;2024-02-26T12:47:01;0.52;;;0.45;;
61505;SDS011;47366;51.916;4.574;2024-02-26T12:49:30;0.50;;;0.50;;
61505;SDS011;47366;51.916;4.574;2024-02-26T12:51:55;0.90;;;0.70;;
61505;SDS011;47366;51.916;4.574;2024-02-26T12:54:27;3.30;;;1.80;;
61505;SDS011;47366;51.916;4.574;2024-02-26T12:56:54;0.52;;;0.52;;
61505;SDS011;47366;51.916;4.574;2024-02-26T12:59:20;1.85;;;0.85;;
61505;SDS011;47366;51.916;4.574;2024-02-26T13:01:45;1.58;;;0.80;;
61505;SDS011;47366;51.916;4.574;2024-02-26T13:04:11;0.43;;;0.43;;
61505;SDS011;47366;51.916;4.574;2024-02-26T13:06:37;0.70;;;0.68;;
61505;SDS011;47366;51.916;4.574;2024-02-26T13:09:02;0.85;;;0.65;;
61505;SDS011;47366;51.916;4.574;2024-02-26T13:11:28;1.75;;;1.15;;
61505;SDS011;47366;51.916;4.574;2024-02-26T13:13:54;2.17;;;0.88;;
61505;SDS011;47366;51.916;4.574;2024-02-26T13:16:20;1.30;;;0.90;;
61505;SDS011;47366;51.916;4.574;2024-02-26T13:18:49;1.95;;;1.08;;
61505;SDS011;47366;51.916;4.574;2024-02-26T13:21:15;0.70;;;0.60;;
61505;SDS011;47366;51.916;4.574;2024-02-26T13:23:41;3.15;;;1.58;;
61505;SDS011;47366;51.916;4.574;2024-02-26T13:26:07;2.70;;;1.17;;
61505;SDS011;47366;51.916;4.574;2024-02-26T13:28:34;3.88;;;0.90;;
61505;SDS011;47366;51.916;4.574;2024-02-26T13:31:00;4.63;;;0.80;;
61505;SDS011;47366;51.916;4.574;2024-02-26T13:33:27;0.93;;;0.80;;
61505;SDS011;47366;51.916;4.574;2024-02-26T13:35:56;0.40;;;0.40;;
61505;SDS011;47366;51.916;4.574;2024-02-26T13:38:22;1.80;;;1.27;;
61505;SDS011;47366;51.916;4.574;2024-02-26T13:40:49;0.73;;;0.55;;
61505;SDS011;47366;51.916;4.574;2024-02-26T13:43:15;2.05;;;1.23;;
61505;SDS011;47366;51.916;4.574;2024-02-26T13:45:40;1.65;;;0.93;;
61505;SDS011;47366;51.916;4.574;2024-02-26T13:48:06;4.00;;;1.58;;
61505;SDS011;47366;51.916;4.574;2024-02-26T13:50:36;1.55;;;0.95;;
61505;SDS011;47366;51.916;4.574;2024-02-26T13:53:02;3.22;;;1.60;;
61505;SDS011;47366;51.916;4.574;2024-02-26T13:55:29;0.57;;;0.38;;
61505;SDS011;47366;51.916;4.574;2024-02-26T13:57:56;1.48;;;0.90;;
61505;SDS011;47366;51.916;4.574;2024-02-26T14:00:28;0.68;;;0.43;;
61505;SDS011;47366;51.916;4.574;2024-02-26T14:02:56;0.80;;;0.52;;
61505;SDS011;47366;51.916;4.574;2024-02-26T14:05:21;1.42;;;1.13;;
61505;SDS011;47366;51.916;4.574;2024-02-26T14:07:47;0.90;;;0.70;;
61505;SDS011;47366;51.916;4.574;2024-02-26T14:10:12;0.95;;;0.80;;
61505;SDS011;47366;51.916;4.574;2024-02-26T14:12:38;1.45;;;0.90;;
61505;SDS011;47366;51.916;4.574;2024-02-26T14:15:05;1.58;;;0.98;;
61505;SDS011;47366;51.916;4.574;2024-02-26T14:17:32;0.22;;;0.22;;
61505;SDS011;47366;51.916;4.574;2024-02-26T14:19:57;4.68;;;2.92;;
61505;SDS011;47366;51.916;4.574;2024-02-26T14:22:22;3.95;;;1.23;;
61505;SDS011;47366;51.916;4.574;2024-02-26T14:24:48;2.28;;;1.08;;
61505;SDS011;47366;51.916;4.574;2024-02-26T14:27:14;1.52;;;1.02;;
61505;SDS011;47366;51.916;4.574;2024-02-26T14:29:41;1.42;;;1.05;;
61505;SDS011;47366;51.916;4.574;2024-02-26T14:32:08;1.48;;;0.80;;
61505;SDS011;47366;51.916;4.574;2024-02-26T14:34:36;0.95;;;0.70;;
61505;SDS011;47366;51.916;4.574;2024-02-26T14:37:02;0.38;;;0.32;;
61505;SDS011;47366;51.916;4.574;2024-02-26T14:39:28;0.32;;;0.32;;
61505;SDS011;47366;51.916;4.574;2024-02-26T14:41:54;1.23;;;0.80;;
61505;SDS011;47366;51.916;4.574;2024-02-26T14:44:19;0.45;;;0.35;;
61505;SDS011;47366;51.916;4.574;2024-02-26T14:46:45;0.28;;;0.28;;